createdAt,value
2022-07-26T00:02:25.931Z,2.10
2022-07-26T00:04:53.039Z,2.00
2022-07-26T00:07:20.205Z,2.00
2022-07-26T00:09:48.518Z,1.90
2022-07-26T00:12:15.823Z,1.70
2022-07-26T00:14:43.785Z,1.80
2022-07-26T00:17:10.712Z,1.73
2022-07-26T00:19:37.613Z,1.87
2022-07-26T00:22:22.944Z,1.90
2022-07-26T00:24:49.845Z,1.70
2022-07-26T00:27:16.710Z,1.43
2022-07-26T00:29:43.762Z,1.60
2022-07-26T00:32:11.882Z,1.40
2022-07-26T00:34:38.852Z,1.77
2022-07-26T00:37:05.823Z,1.60
2022-07-26T00:39:32.686Z,1.57
2022-07-26T00:41:59.562Z,1.63
2022-07-26T00:44:40.652Z,1.90
2022-07-26T00:47:07.861Z,1.80
2022-07-26T00:49:34.823Z,1.60
2022-07-26T00:52:02.963Z,1.60
2022-07-26T00:54:30.058Z,1.50
2022-07-26T00:56:56.999Z,1.47
2022-07-26T00:59:23.864Z,1.40
2022-07-26T01:01:50.894Z,1.47
2022-07-26T01:04:17.870Z,1.50
2022-07-26T01:06:44.838Z,1.50
2022-07-26T01:09:12.526Z,1.30
2022-07-26T01:11:39.468Z,1.80
2022-07-26T01:14:06.748Z,1.33
2022-07-26T01:16:33.958Z,1.40
2022-07-26T01:19:01.009Z,1.40
2022-07-26T01:21:33.864Z,1.60
2022-07-26T01:24:00.724Z,1.40
2022-07-26T01:26:27.712Z,1.70
2022-07-26T01:28:54.651Z,1.37
2022-07-26T01:31:21.624Z,1.70
2022-07-26T01:33:50.127Z,1.60
2022-07-26T01:36:17.681Z,1.50
2022-07-26T01:38:45.114Z,1.30
2022-07-26T01:41:12.058Z,1.37
2022-07-26T01:43:39.183Z,1.40
2022-07-26T01:46:09.309Z,1.60
2022-07-26T01:48:36.696Z,1.40
2022-07-26T01:51:04.185Z,1.50
2022-07-26T01:53:31.348Z,1.50
2022-07-26T01:55:58.828Z,1.40
2022-07-26T01:58:25.686Z,1.50
2022-07-26T02:00:52.556Z,1.50
2022-07-26T02:03:19.423Z,1.53
2022-07-26T02:05:46.342Z,1.50
2022-07-26T02:08:13.253Z,1.33
2022-07-26T02:10:59.060Z,1.60
2022-07-26T02:13:29.545Z,1.47
2022-07-26T02:15:58.863Z,1.60
2022-07-26T02:18:28.416Z,1.43
2022-07-26T02:20:56.533Z,1.50
2022-07-26T02:23:23.842Z,1.40
2022-07-26T02:25:50.900Z,1.60
2022-07-26T02:28:18.120Z,1.20
2022-07-26T02:30:46.513Z,1.20
2022-07-26T02:33:14.413Z,1.40
2022-07-26T02:35:42.035Z,1.43
2022-07-26T02:38:12.461Z,1.23
2022-07-26T02:40:40.437Z,1.50
2022-07-26T02:43:09.179Z,1.40
2022-07-26T02:45:36.219Z,1.40
2022-07-26T02:48:03.847Z,1.33
2022-07-26T02:50:30.828Z,1.53
2022-07-26T02:52:58.118Z,1.60
2022-07-26T02:55:26.841Z,1.23
2022-07-26T02:57:54.231Z,1.30
2022-07-26T03:00:25.344Z,1.43
2022-07-26T03:02:52.613Z,1.20
2022-07-26T03:05:21.117Z,1.60
2022-07-26T03:07:48.436Z,1.20
2022-07-26T03:10:15.322Z,1.43
2022-07-26T03:12:43.338Z,1.30
2022-07-26T03:15:11.675Z,1.33
2022-07-26T03:17:39.554Z,1.30
2022-07-26T03:20:07.615Z,1.50
2022-07-26T03:22:34.419Z,1.37
2022-07-26T03:25:01.329Z,1.40
2022-07-26T03:27:28.184Z,1.50
2022-07-26T03:29:55.234Z,1.50
2022-07-26T03:32:22.149Z,1.30
2022-07-26T03:34:49.004Z,1.47
2022-07-26T03:37:16.302Z,1.60
2022-07-26T03:39:43.547Z,1.40
2022-07-26T03:42:10.387Z,1.60
2022-07-26T03:44:37.320Z,1.37
2022-07-26T03:47:04.231Z,1.57
2022-07-26T03:49:32.006Z,1.50
2022-07-26T03:51:58.937Z,1.50
2022-07-26T03:54:26.055Z,1.30
2022-07-26T03:56:53.219Z,1.70
2022-07-26T03:59:20.396Z,1.50
2022-07-26T04:01:48.279Z,1.30
2022-07-26T04:04:18.101Z,1.50
2022-07-26T04:06:47.285Z,1.40
2022-07-26T04:09:15.843Z,1.47
2022-07-26T04:11:43.698Z,1.40
2022-07-26T04:14:11.905Z,1.30
2022-07-26T04:16:43.437Z,1.20
2022-07-26T04:19:10.888Z,1.20
2022-07-26T04:21:37.848Z,1.27
2022-07-26T04:24:05.256Z,1.33
2022-07-26T04:26:32.338Z,1.17
2022-07-26T04:28:59.181Z,1.20
2022-07-26T04:31:26.159Z,1.30
2022-07-26T04:33:53.063Z,1.30
2022-07-26T04:36:20.114Z,1.30
2022-07-26T04:38:47.018Z,1.40
2022-07-26T04:41:14.030Z,1.30
2022-07-26T04:43:40.879Z,1.20
2022-07-26T04:46:07.812Z,1.30
2022-07-26T04:48:34.860Z,1.30
2022-07-26T04:51:01.900Z,1.27
2022-07-26T04:53:28.762Z,1.40
2022-07-26T04:55:55.594Z,1.20
2022-07-26T04:58:22.413Z,1.40
2022-07-26T05:03:26.867Z,1.30
2022-07-26T05:05:53.855Z,1.60
2022-07-26T05:08:20.918Z,1.30
2022-07-26T05:10:54.640Z,1.30
2022-07-26T05:13:23.053Z,1.37
2022-07-26T05:15:56.431Z,1.20
2022-07-26T05:18:23.339Z,1.20
2022-07-26T05:20:51.156Z,1.40
2022-07-26T05:23:18.505Z,1.47
2022-07-26T05:25:45.341Z,1.50
2022-07-26T05:28:12.183Z,1.60
2022-07-26T05:30:39.115Z,1.40
2022-07-26T05:33:06.090Z,1.50
2022-07-26T05:35:33.078Z,1.67
2022-07-26T05:37:59.948Z,1.80
2022-07-26T05:40:27.287Z,1.60
2022-07-26T05:42:54.110Z,1.67
2022-07-26T05:45:21.013Z,1.70
2022-07-26T05:47:51.100Z,1.53
2022-07-26T05:50:18.404Z,1.60
2022-07-26T05:52:45.732Z,1.70
2022-07-26T05:55:12.742Z,1.90
2022-07-26T05:57:41.586Z,1.67
2022-07-26T06:00:10.259Z,1.77
2022-07-26T06:02:37.288Z,1.70
2022-07-26T06:05:04.687Z,1.77
2022-07-26T06:07:31.620Z,1.60
2022-07-26T06:09:58.548Z,1.70
2022-07-26T06:12:25.418Z,1.70
2022-07-26T06:14:52.334Z,1.50
2022-07-26T06:17:19.247Z,1.73
2022-07-26T06:19:47.849Z,1.73
2022-07-26T06:22:15.354Z,1.70
2022-07-26T06:24:42.218Z,1.60
2022-07-26T06:27:09.045Z,1.80
2022-07-26T06:29:35.969Z,1.73
2022-07-26T06:32:02.850Z,1.67
2022-07-26T06:34:30.017Z,1.63
2022-07-26T06:36:56.897Z,1.70
2022-07-26T06:39:23.851Z,1.70
2022-07-26T06:41:50.892Z,1.60
2022-07-26T06:44:17.801Z,1.60
2022-07-26T06:46:44.777Z,1.60
2022-07-26T06:49:13.012Z,1.50
2022-07-26T06:51:40.129Z,1.63
2022-07-26T06:54:07.359Z,1.63
2022-07-26T06:56:34.431Z,1.30
2022-07-26T06:59:05.056Z,1.40
2022-07-26T07:01:58.398Z,1.20
2022-07-26T07:04:21.399Z,1.47
2022-07-26T07:06:48.346Z,1.10
2022-07-26T07:09:16.445Z,1.30
2022-07-26T07:11:44.427Z,1.27
2022-07-26T07:14:12.008Z,1.40
2022-07-26T07:16:39.140Z,1.20
2022-07-26T07:19:06.356Z,1.27
2022-07-26T07:21:33.883Z,1.10
2022-07-26T07:24:00.855Z,1.10
2022-07-26T07:26:32.497Z,1.30
2022-07-26T07:28:59.529Z,1.00
2022-07-26T07:31:48.008Z,1.00
2022-07-26T07:34:22.742Z,1.00
2022-07-26T07:36:51.960Z,1.17
2022-07-26T07:39:19.751Z,1.10
2022-07-26T07:41:48.315Z,0.93
2022-07-26T07:44:15.430Z,1.20
2022-07-26T07:46:42.465Z,1.13
2022-07-26T07:49:11.289Z,1.00
2022-07-26T07:51:38.542Z,1.10
2022-07-26T07:54:06.318Z,1.00
2022-07-26T07:56:34.615Z,1.20
2022-07-26T07:59:01.539Z,0.90
2022-07-26T08:01:39.517Z,1.07
2022-07-26T08:04:08.910Z,0.90
2022-07-26T08:06:36.582Z,1.10
2022-07-26T08:18:15.153Z,0.83
2022-07-26T08:20:43.632Z,0.90
2022-07-26T08:23:11.002Z,0.90
2022-07-26T08:25:42.546Z,1.17
2022-07-26T08:28:37.675Z,0.80
2022-07-26T08:31:04.331Z,1.00
2022-07-26T08:33:31.211Z,1.10
2022-07-26T08:35:58.678Z,0.80
2022-07-26T08:38:25.649Z,0.90
2022-07-26T08:40:52.615Z,0.88
2022-07-26T08:43:19.557Z,1.00
2022-07-26T08:45:47.316Z,0.93
2022-07-26T08:48:17.726Z,0.82
2022-07-26T08:50:45.205Z,0.93
2022-07-26T08:53:13.362Z,0.90
2022-07-26T08:56:05.424Z,1.05
2022-07-26T08:58:45.655Z,1.10
2022-07-26T09:01:13.514Z,1.00
2022-07-26T09:03:42.618Z,0.80
2022-07-26T09:06:16.114Z,0.90
2022-07-26T09:08:45.935Z,0.90
2022-07-26T09:12:31.546Z,1.00
2022-07-26T09:15:00.149Z,0.93
2022-07-26T09:17:41.635Z,1.10
2022-07-26T09:20:16.674Z,1.00
2022-07-26T09:23:10.253Z,0.77
2022-07-26T09:25:40.433Z,0.80
2022-07-26T09:28:33.781Z,0.80
2022-07-26T09:31:04.427Z,1.00
2022-07-26T09:33:50.303Z,0.80
2022-07-26T09:36:18.734Z,1.10
2022-07-26T09:38:49.235Z,0.90
2022-07-26T09:41:36.460Z,0.88
2022-07-26T09:44:06.934Z,0.90
2022-07-26T09:46:35.855Z,1.02
2022-07-26T09:49:20.240Z,0.98
2022-07-26T09:51:50.833Z,0.90
2022-07-26T09:54:29.524Z,0.90
2022-07-26T09:56:56.885Z,0.90
2022-07-26T09:59:26.416Z,0.90
2022-07-26T10:01:56.049Z,0.90
2022-07-26T10:04:23.080Z,0.90
2022-07-26T10:06:50.303Z,1.00
2022-07-26T10:09:22.831Z,0.80
2022-07-26T10:19:58.764Z,1.00
2022-07-26T10:22:44.308Z,1.05
2022-07-26T10:25:20.323Z,1.05
2022-07-26T10:27:57.874Z,0.85
2022-07-26T10:30:35.345Z,0.98
2022-07-26T10:33:10.177Z,0.80
2022-07-26T10:35:40.147Z,0.98
2022-07-26T10:38:29.414Z,0.90
2022-07-26T10:41:07.823Z,0.90
2022-07-26T10:48:09.731Z,1.00
2022-07-26T10:50:42.475Z,0.90
2022-07-26T10:53:19.956Z,1.20
2022-07-26T10:55:54.925Z,0.90
2022-07-26T10:58:23.790Z,0.77
2022-07-26T11:01:04.301Z,0.80
2022-07-26T11:03:47.813Z,1.00
2022-07-26T11:06:25.467Z,0.80
2022-07-26T11:08:52.451Z,0.90
2022-07-26T11:11:36.915Z,1.00
2022-07-26T11:14:09.979Z,0.98
2022-07-26T11:16:46.244Z,1.00
2022-07-26T11:19:23.754Z,0.90
2022-07-26T11:22:00.922Z,1.00
2022-07-26T11:24:30.715Z,0.90
2022-07-26T11:27:04.399Z,1.10
2022-07-26T11:29:41.489Z,0.88
2022-07-26T11:32:25.300Z,1.08
2022-07-26T11:35:10.783Z,0.80
2022-07-26T11:37:39.223Z,0.80
2022-07-26T11:40:10.190Z,0.90
2022-07-26T11:42:43.015Z,0.90
2022-07-26T11:45:14.917Z,1.23
2022-07-26T11:47:42.120Z,0.60
2022-07-26T11:50:21.591Z,1.00
2022-07-26T11:52:49.667Z,0.77
2022-07-26T11:55:30.234Z,0.90
2022-07-26T11:58:05.157Z,0.85
2022-07-26T12:00:32.716Z,0.77
2022-07-26T12:02:59.868Z,0.88
2022-07-26T12:05:27.958Z,0.88
2022-07-26T12:08:05.048Z,0.98
2022-07-26T12:10:32.461Z,0.80
2022-07-26T12:13:13.261Z,0.75
2022-07-26T12:15:54.659Z,0.93
2022-07-26T12:18:35.682Z,1.00
2022-07-26T12:21:08.740Z,1.05
2022-07-26T12:23:50.949Z,0.90
2022-07-26T12:26:29.223Z,0.90
2022-07-26T12:28:58.383Z,0.63
2022-07-26T12:31:34.392Z,0.73
2022-07-26T12:34:01.744Z,0.90
2022-07-26T12:36:29.938Z,0.93
2022-07-26T12:38:59.744Z,1.05
2022-07-26T12:41:39.245Z,0.88
2022-07-26T12:44:11.853Z,0.80
2022-07-26T12:46:39.989Z,0.93
2022-07-26T12:49:07.419Z,0.90
2022-07-26T12:51:37.443Z,0.80
2022-07-26T12:54:06.819Z,0.90
2022-07-26T12:56:37.421Z,0.80
2022-07-26T12:59:04.479Z,0.73
2022-07-26T13:01:34.413Z,0.80
2022-07-26T13:04:04.875Z,0.75
2022-07-26T13:06:32.992Z,0.85
2022-07-26T13:09:00.969Z,0.70
2022-07-26T13:11:29.076Z,0.82
2022-07-26T13:13:56.434Z,0.70
2022-07-26T13:16:23.698Z,0.77
2022-07-26T13:18:50.707Z,0.80
2022-07-26T13:21:17.832Z,0.90
2022-07-26T13:23:44.947Z,0.60
2022-07-26T13:26:12.954Z,0.77
2022-07-26T13:28:41.526Z,0.90
2022-07-26T13:31:10.802Z,0.90
2022-07-26T13:33:39.394Z,0.73
2022-07-26T13:36:06.456Z,0.80
2022-07-26T13:38:36.820Z,0.60
2022-07-26T13:41:04.205Z,0.70
2022-07-26T13:43:31.683Z,0.90
2022-07-26T13:45:58.933Z,0.70
2022-07-26T13:48:25.951Z,0.85
2022-07-26T13:50:57.834Z,0.68
2022-07-26T13:53:25.838Z,0.80
2022-07-26T13:55:56.267Z,0.90
2022-07-26T13:58:26.496Z,0.80
2022-07-26T14:00:54.592Z,0.63
2022-07-26T14:03:21.760Z,0.80
2022-07-26T14:05:48.930Z,0.70
2022-07-26T14:08:16.089Z,0.70
2022-07-26T14:10:43.191Z,0.80
2022-07-26T14:13:10.412Z,0.73
2022-07-26T14:15:37.438Z,0.70
2022-07-26T14:18:04.606Z,0.88
2022-07-26T14:20:31.745Z,0.70
2022-07-26T14:22:58.782Z,0.80
2022-07-26T14:25:27.508Z,0.80
2022-07-26T14:27:55.426Z,0.80
2022-07-26T14:30:22.839Z,0.90
2022-07-26T14:32:54.034Z,0.80
2022-07-26T14:35:21.236Z,0.70
2022-07-26T14:37:48.186Z,0.70
2022-07-26T14:40:17.199Z,0.68
2022-07-26T14:42:45.717Z,0.90
2022-07-26T14:45:14.245Z,0.90
2022-07-26T14:47:41.776Z,0.75
2022-07-26T14:50:10.276Z,0.88
2022-07-26T14:52:46.124Z,0.75
2022-07-26T14:55:15.325Z,0.95
2022-07-26T14:57:43.413Z,0.73
2022-07-26T15:00:18.938Z,0.80
2022-07-26T15:02:48.969Z,0.77
2022-07-26T15:05:17.956Z,0.73
2022-07-26T15:07:49.302Z,0.70
2022-07-26T15:10:16.911Z,0.98
2022-07-26T15:12:49.736Z,0.77
2022-07-26T15:15:16.796Z,0.80
2022-07-26T15:17:46.653Z,0.90
2022-07-26T15:20:14.271Z,0.80
2022-07-26T15:22:41.342Z,0.90
2022-07-26T15:25:08.904Z,0.88
2022-07-26T15:27:36.061Z,0.82
2022-07-26T15:30:08.087Z,0.80
2022-07-26T15:32:38.652Z,0.88
2022-07-26T15:35:14.317Z,0.70
2022-07-26T15:37:48.058Z,0.75
2022-07-26T15:40:15.139Z,0.80
2022-07-26T15:42:45.627Z,0.80
2022-07-26T15:45:13.378Z,0.80
2022-07-26T15:47:54.801Z,0.70
2022-07-26T15:50:25.565Z,0.90
2022-07-26T15:52:52.772Z,0.90
2022-07-26T15:55:20.273Z,0.80
2022-07-26T15:57:47.506Z,0.90
2022-07-26T16:00:15.833Z,0.90
2022-07-26T16:02:42.997Z,0.85
2022-07-26T16:05:10.947Z,0.93
2022-07-26T16:07:41.559Z,0.95
2022-07-26T16:10:12.235Z,0.90
2022-07-26T16:12:41.137Z,0.70
2022-07-26T16:15:10.503Z,0.77
2022-07-26T16:17:37.847Z,0.77
2022-07-26T16:20:05.965Z,0.93
2022-07-26T16:22:33.105Z,1.00
2022-07-26T16:25:00.397Z,1.10
2022-07-26T16:27:27.552Z,0.88
2022-07-26T16:29:54.874Z,0.90
2022-07-26T16:32:22.064Z,1.00
2022-07-26T16:34:49.205Z,0.82
2022-07-26T16:37:16.574Z,0.90
2022-07-26T16:39:43.519Z,0.90
2022-07-26T16:42:10.600Z,0.70
2022-07-26T16:44:38.086Z,0.80
2022-07-26T16:47:05.225Z,0.80
2022-07-26T16:49:32.340Z,0.73
2022-07-26T16:51:59.457Z,0.75
2022-07-26T16:54:26.571Z,0.90
2022-07-26T16:56:53.996Z,0.90
2022-07-26T16:59:20.860Z,0.80
2022-07-26T17:01:48.009Z,0.80
2022-07-26T17:04:16.552Z,0.80
2022-07-26T17:07:01.705Z,1.08
2022-07-26T17:09:31.719Z,0.90
2022-07-26T17:12:02.905Z,0.80
2022-07-26T17:14:32.835Z,0.90
2022-07-26T17:16:59.715Z,1.00
2022-07-26T17:19:26.984Z,0.82
2022-07-26T17:21:53.941Z,0.73
2022-07-26T17:24:20.870Z,0.73
2022-07-26T17:26:47.862Z,0.90
2022-07-26T17:29:15.053Z,0.93
2022-07-26T17:31:42.023Z,0.90
2022-07-26T17:34:09.542Z,0.90
2022-07-26T17:36:36.959Z,0.80
2022-07-26T17:39:04.496Z,0.88
2022-07-26T17:41:33.622Z,0.90
2022-07-26T17:44:02.959Z,0.80
2022-07-26T17:46:33.908Z,0.70
2022-07-26T17:49:01.204Z,0.90
2022-07-26T17:51:28.366Z,0.85
2022-07-26T17:53:55.283Z,0.90
2022-07-26T17:56:22.305Z,0.90
2022-07-26T17:58:49.118Z,0.90
2022-07-26T18:01:16.226Z,1.20
2022-07-26T18:03:44.227Z,1.08
2022-07-26T18:06:11.326Z,0.90
2022-07-26T18:08:38.517Z,1.08
2022-07-26T18:11:07.402Z,0.95
2022-07-26T18:13:34.486Z,0.80
2022-07-26T18:16:05.746Z,1.00
2022-07-26T18:18:33.347Z,1.10
2022-07-26T18:21:00.452Z,0.98
2022-07-26T18:23:27.335Z,0.90
2022-07-26T18:25:54.424Z,1.00
2022-07-26T18:28:21.301Z,0.90
2022-07-26T18:30:48.161Z,0.95
2022-07-26T18:33:15.011Z,1.08
2022-07-26T18:35:42.061Z,1.10
2022-07-26T18:38:09.816Z,1.20
2022-07-26T18:40:37.416Z,1.30
2022-07-26T18:43:04.575Z,1.10
2022-07-26T18:45:31.571Z,1.23
2022-07-26T18:47:58.669Z,1.10
2022-07-26T18:50:26.799Z,1.10
2022-07-26T18:52:59.276Z,0.90
2022-07-26T18:55:26.316Z,1.20
2022-07-26T18:57:53.506Z,1.00
2022-07-26T19:00:23.005Z,1.00
2022-07-26T19:02:52.050Z,1.00
2022-07-26T19:05:20.626Z,1.15
2022-07-26T19:07:47.587Z,1.00
2022-07-26T19:10:14.758Z,0.82
2022-07-26T19:12:43.650Z,0.80
2022-07-26T19:15:11.350Z,1.10
2022-07-26T19:17:38.449Z,1.00
2022-07-26T19:20:07.809Z,0.98
2022-07-26T19:22:35.590Z,0.95
2022-07-26T19:25:02.545Z,1.00
2022-07-26T19:27:29.523Z,1.02
2022-07-26T19:29:57.138Z,1.00
2022-07-26T19:32:28.027Z,0.95
2022-07-26T19:34:57.288Z,1.00
2022-07-26T19:37:24.123Z,0.90
2022-07-26T19:39:53.656Z,0.87
2022-07-26T19:42:20.603Z,1.00
2022-07-26T19:44:47.716Z,1.00
2022-07-26T19:47:15.122Z,1.00
2022-07-26T19:49:42.513Z,0.90
2022-07-26T19:52:11.652Z,0.90
2022-07-26T19:54:39.129Z,1.03
2022-07-26T19:57:07.773Z,1.13
2022-07-26T19:59:34.756Z,1.00
2022-07-26T20:02:02.688Z,1.00
2022-07-26T20:04:29.879Z,1.00
2022-07-26T20:06:57.134Z,1.20
2022-07-26T20:09:24.321Z,1.10
2022-07-26T20:11:51.268Z,1.20
2022-07-26T20:14:24.674Z,1.20
2022-07-26T20:16:56.145Z,1.03
2022-07-26T20:19:24.949Z,1.10
2022-07-26T20:21:52.058Z,1.10
2022-07-26T20:24:19.210Z,1.00
2022-07-26T20:26:46.297Z,1.30
2022-07-26T20:29:13.549Z,1.10
2022-07-26T20:31:40.951Z,1.00
2022-07-26T20:34:07.906Z,1.00
2022-07-26T20:36:35.177Z,1.37
2022-07-26T20:39:02.261Z,1.40
2022-07-26T20:41:33.769Z,1.20
2022-07-26T20:44:01.019Z,1.30
2022-07-26T20:46:28.196Z,1.30
2022-07-26T20:48:57.037Z,1.30
2022-07-26T20:51:24.600Z,1.17
2022-07-26T20:53:51.490Z,1.20
2022-07-26T20:56:18.676Z,1.10
2022-07-26T20:58:45.580Z,1.20
2022-07-26T21:01:13.858Z,1.20
2022-07-26T21:03:40.953Z,1.20
2022-07-26T21:06:08.593Z,1.30
2022-07-26T21:08:36.226Z,1.30
2022-07-26T21:11:03.421Z,1.30
2022-07-26T21:13:34.061Z,1.20
2022-07-26T21:16:01.143Z,1.20
2022-07-26T21:18:30.014Z,1.37
2022-07-26T21:20:58.275Z,1.30
2022-07-26T21:23:34.919Z,1.23
2022-07-26T21:26:05.375Z,1.40
2022-07-26T21:28:33.735Z,1.43
2022-07-26T21:31:02.309Z,1.40
2022-07-26T21:33:29.590Z,1.37
2022-07-26T21:35:56.650Z,1.40
2022-07-26T21:38:24.287Z,1.20
2022-07-26T21:40:51.665Z,1.30
2022-07-26T21:43:19.916Z,1.30
2022-07-26T21:45:49.932Z,1.20
2022-07-26T21:48:17.769Z,1.33
2022-07-26T21:50:45.050Z,1.20
2022-07-26T21:53:12.461Z,1.40
2022-07-26T21:55:39.876Z,1.20
2022-07-26T21:58:06.854Z,1.10
2022-07-26T22:00:34.663Z,1.20
2022-07-26T22:03:01.851Z,1.20
2022-07-26T22:05:35.075Z,1.40
2022-07-26T22:08:02.841Z,1.30
2022-07-26T22:10:29.874Z,1.30
2022-07-26T22:12:56.897Z,1.20
2022-07-26T22:15:23.939Z,1.20
2022-07-26T22:17:56.256Z,1.57
2022-07-26T22:20:23.250Z,1.30
2022-07-26T22:22:50.187Z,1.27
2022-07-26T22:25:18.121Z,1.30
2022-07-26T22:27:45.043Z,1.13
2022-07-26T22:30:12.277Z,1.30
2022-07-26T22:32:39.149Z,1.23
2022-07-26T22:35:06.478Z,1.10
2022-07-26T22:37:33.375Z,1.27
2022-07-26T22:40:00.313Z,1.30
2022-07-26T22:42:27.283Z,1.53
2022-07-26T22:44:54.105Z,1.10
2022-07-26T22:47:20.922Z,1.43
2022-07-26T22:49:47.738Z,1.30
2022-07-26T22:52:14.649Z,1.33
2022-07-26T22:54:41.504Z,1.13
2022-07-26T22:57:08.447Z,1.40
2022-07-26T22:59:36.898Z,1.20
2022-07-26T23:02:04.365Z,1.37
2022-07-26T23:04:31.309Z,1.20
2022-07-26T23:06:58.729Z,1.13
2022-07-26T23:09:27.043Z,1.50
2022-07-26T23:11:53.926Z,1.23
2022-07-26T23:14:20.826Z,1.23
2022-07-26T23:16:47.817Z,1.20
2022-07-26T23:19:15.075Z,1.30
2022-07-26T23:21:42.337Z,1.30
2022-07-26T23:24:09.554Z,1.27
2022-07-26T23:26:36.509Z,1.30
2022-07-26T23:29:04.356Z,1.37
2022-07-26T23:31:31.266Z,1.30
2022-07-26T23:33:58.119Z,1.30
2022-07-26T23:36:27.597Z,1.23
2022-07-26T23:38:56.394Z,1.13
2022-07-26T23:41:24.285Z,1.27
2022-07-26T23:43:51.857Z,1.20
2022-07-26T23:46:18.738Z,1.60
2022-07-26T23:48:46.337Z,1.13
2022-07-26T23:51:13.724Z,1.43
2022-07-26T23:53:40.819Z,1.20
2022-07-26T23:56:07.882Z,1.30
2022-07-26T23:58:34.773Z,1.30
